sensor_id;sensor_type;location;lat;lon;timestamp;temperature;humidity
22578;DHT22;11455;52.390;13.028;2023-05-24T00:01:50;12.80;92.80
22578;DHT22;11455;52.390;13.028;2023-05-24T00:04:16;12.90;93.20
22578;DHT22;11455;52.390;13.028;2023-05-24T00:06:43;12.80;85.10
22578;DHT22;11455;52.390;13.028;2023-05-24T00:09:09;12.80;86.00
22578;DHT22;11455;52.390;13.028;2023-05-24T00:11:35;12.80;79.20
22578;DHT22;11455;52.390;13.028;2023-05-24T00:14:01;12.80;80.90
22578;DHT22;11455;52.390;13.028;2023-05-24T00:16:27;12.80;93.40
22578;DHT22;11455;52.390;13.028;2023-05-24T00:18:52;12.80;93.30
22578;DHT22;11455;52.390;13.028;2023-05-24T00:21:19;12.90;95.50
22578;DHT22;11455;52.390;13.028;2023-05-24T00:23:44;13.00;78.20
22578;DHT22;11455;52.390;13.028;2023-05-24T00:26:10;13.00;73.10
22578;DHT22;11455;52.390;13.028;2023-05-24T00:28:39;12.90;62.30
22578;DHT22;11455;52.390;13.028;2023-05-24T00:31:04;12.90;62.70
22578;DHT22;11455;52.390;13.028;2023-05-24T00:33:31;12.90;76.20
22578;DHT22;11455;52.390;13.028;2023-05-24T00:35:56;12.80;86.30
22578;DHT22;11455;52.390;13.028;2023-05-24T00:38:22;12.90;77.60
22578;DHT22;11455;52.390;13.028;2023-05-24T00:40:51;13.00;65.20
22578;DHT22;11455;52.390;13.028;2023-05-24T00:43:17;13.00;52.50
22578;DHT22;11455;52.390;13.028;2023-05-24T00:45:43;13.00;54.80
22578;DHT22;11455;52.390;13.028;2023-05-24T00:48:09;13.00;51.30
22578;DHT22;11455;52.390;13.028;2023-05-24T00:50:36;13.10;43.20
22578;DHT22;11455;52.390;13.028;2023-05-24T00:53:02;13.10;36.40
22578;DHT22;11455;52.390;13.028;2023-05-24T00:55:28;13.10;21.70
22578;DHT22;11455;52.390;13.028;2023-05-24T00:57:57;13.00;26.70
22578;DHT22;11455;52.390;13.028;2023-05-24T01:00:23;13.00;23.90
22578;DHT22;11455;52.390;13.028;2023-05-24T01:02:49;13.00;19.20
22578;DHT22;11455;52.390;13.028;2023-05-24T01:05:16;12.80;34.80
22578;DHT22;11455;52.390;13.028;2023-05-24T01:07:49;12.80;45.40
22578;DHT22;11455;52.390;13.028;2023-05-24T01:10:30;12.70;49.70
22578;DHT22;11455;52.390;13.028;2023-05-24T01:18:16;12.90;35.30
22578;DHT22;11455;52.390;13.028;2023-05-24T01:20:42;12.80;40.10
22578;DHT22;11455;52.390;13.028;2023-05-24T01:23:17;12.80;50.20
22578;DHT22;11455;52.390;13.028;2023-05-24T01:28:16;12.80;48.10
22578;DHT22;11455;52.390;13.028;2023-05-24T01:30:42;12.80;46.30
22578;DHT22;11455;52.390;13.028;2023-05-24T01:33:08;12.80;42.20
22578;DHT22;11455;52.390;13.028;2023-05-24T01:35:34;12.90;36.80
22578;DHT22;11455;52.390;13.028;2023-05-24T01:38:05;12.90;21.20
22578;DHT22;11455;52.390;13.028;2023-05-24T01:40:33;12.90;16.70
22578;DHT22;11455;52.390;13.028;2023-05-24T01:43:21;12.80;28.30
22578;DHT22;11455;52.390;13.028;2023-05-24T01:45:53;12.90;23.10
22578;DHT22;11455;52.390;13.028;2023-05-24T01:50:51;12.90;28.60
22578;DHT22;11455;52.390;13.028;2023-05-24T01:53:19;12.90;26.50
22578;DHT22;11455;52.390;13.028;2023-05-24T01:55:47;13.00;22.70
22578;DHT22;11455;52.390;13.028;2023-05-24T01:58:15;13.00;19.70
22578;DHT22;11455;52.390;13.028;2023-05-24T02:00:40;12.90;18.50
22578;DHT22;11455;52.390;13.028;2023-05-24T02:03:06;12.80;14.40
22578;DHT22;11455;52.390;13.028;2023-05-24T02:05:32;12.70;13.00
22578;DHT22;11455;52.390;13.028;2023-05-24T02:08:04;12.60;16.60
22578;DHT22;11455;52.390;13.028;2023-05-24T02:10:30;12.60;26.70
22578;DHT22;11455;52.390;13.028;2023-05-24T02:12:55;12.60;40.80
22578;DHT22;11455;52.390;13.028;2023-05-24T02:15:21;12.60;25.40
22578;DHT22;11455;52.390;13.028;2023-05-24T02:17:47;12.60;15.30
22578;DHT22;11455;52.390;13.028;2023-05-24T02:20:13;12.60;10.20
22578;DHT22;11455;52.390;13.028;2023-05-24T02:22:39;12.50;1.40
22578;DHT22;11455;52.390;13.028;2023-05-24T02:25:05;12.40;17.50
22578;DHT22;11455;52.390;13.028;2023-05-24T02:27:31;12.40;20.10
22578;DHT22;11455;52.390;13.028;2023-05-24T02:29:59;12.50;10.60
22578;DHT22;11455;52.390;13.028;2023-05-24T02:32:24;12.50;11.60
22578;DHT22;11455;52.390;13.028;2023-05-24T02:34:50;12.50;1.00
22578;DHT22;11455;52.390;13.028;2023-05-24T02:37:15;12.50;1.00
22578;DHT22;11455;52.390;13.028;2023-05-24T02:39:41;12.50;1.00
22578;DHT22;11455;52.390;13.028;2023-05-24T02:42:07;12.40;1.00
22578;DHT22;11455;52.390;13.028;2023-05-24T02:44:33;12.40;1.00
22578;DHT22;11455;52.390;13.028;2023-05-24T02:46:59;12.30;1.00
22578;DHT22;11455;52.390;13.028;2023-05-24T02:49:25;12.20;1.00
22578;DHT22;11455;52.390;13.028;2023-05-24T02:51:50;12.20;1.00
22578;DHT22;11455;52.390;13.028;2023-05-24T02:54:17;12.20;4.50
22578;DHT22;11455;52.390;13.028;2023-05-24T02:56:43;12.30;1.00
22578;DHT22;11455;52.390;13.028;2023-05-24T02:59:09;12.40;1.00
22578;DHT22;11455;52.390;13.028;2023-05-24T03:01:36;12.60;1.00
22578;DHT22;11455;52.390;13.028;2023-05-24T03:04:02;12.70;1.00
22578;DHT22;11455;52.390;13.028;2023-05-24T03:06:29;12.80;1.00
22578;DHT22;11455;52.390;13.028;2023-05-24T03:08:55;12.90;1.00
22578;DHT22;11455;52.390;13.028;2023-05-24T03:11:24;13.00;1.00
22578;DHT22;11455;52.390;13.028;2023-05-24T03:13:50;13.00;1.00
22578;DHT22;11455;52.390;13.028;2023-05-24T03:16:16;13.00;1.00
22578;DHT22;11455;52.390;13.028;2023-05-24T03:18:44;13.00;1.00
22578;DHT22;11455;52.390;13.028;2023-05-24T03:21:10;12.90;1.00
22578;DHT22;11455;52.390;13.028;2023-05-24T03:23:36;12.90;1.00
22578;DHT22;11455;52.390;13.028;2023-05-24T03:26:02;12.90;1.00
22578;DHT22;11455;52.390;13.028;2023-05-24T03:28:28;12.90;1.00
22578;DHT22;11455;52.390;13.028;2023-05-24T03:30:54;12.90;1.00
22578;DHT22;11455;52.390;13.028;2023-05-24T03:33:20;12.80;1.00
22578;DHT22;11455;52.390;13.028;2023-05-24T03:35:45;12.90;1.00
22578;DHT22;11455;52.390;13.028;2023-05-24T03:38:11;12.80;1.00
22578;DHT22;11455;52.390;13.028;2023-05-24T03:40:39;12.80;1.00
22578;DHT22;11455;52.390;13.028;2023-05-24T03:43:17;12.80;1.00
22578;DHT22;11455;52.390;13.028;2023-05-24T03:45:50;12.80;1.00
22578;DHT22;11455;52.390;13.028;2023-05-24T03:48:17;12.90;1.00
22578;DHT22;11455;52.390;13.028;2023-05-24T03:50:45;12.90;1.00
22578;DHT22;11455;52.390;13.028;2023-05-24T03:53:11;12.90;1.00
22578;DHT22;11455;52.390;13.028;2023-05-24T03:55:39;12.90;1.00
22578;DHT22;11455;52.390;13.028;2023-05-24T03:58:05;12.90;1.00
22578;DHT22;11455;52.390;13.028;2023-05-24T04:00:33;13.00;1.00
22578;DHT22;11455;52.390;13.028;2023-05-24T04:03:01;12.90;1.00
22578;DHT22;11455;52.390;13.028;2023-05-24T04:05:27;13.00;1.00
22578;DHT22;11455;52.390;13.028;2023-05-24T04:07:55;13.00;1.00
22578;DHT22;11455;52.390;13.028;2023-05-24T04:10:21;12.90;1.00
22578;DHT22;11455;52.390;13.028;2023-05-24T04:12:47;12.90;1.00
22578;DHT22;11455;52.390;13.028;2023-05-24T04:15:13;12.90;1.00
22578;DHT22;11455;52.390;13.028;2023-05-24T04:17:41;12.80;1.00
22578;DHT22;11455;52.390;13.028;2023-05-24T04:20:06;12.80;1.00
22578;DHT22;11455;52.390;13.028;2023-05-24T04:22:34;12.80;1.00
22578;DHT22;11455;52.390;13.028;2023-05-24T04:25:01;12.80;1.00
22578;DHT22;11455;52.390;13.028;2023-05-24T04:27:26;12.70;1.00
22578;DHT22;11455;52.390;13.028;2023-05-24T04:29:52;12.70;1.00
22578;DHT22;11455;52.390;13.028;2023-05-24T04:32:20;12.70;1.00
22578;DHT22;11455;52.390;13.028;2023-05-24T04:34:46;12.80;1.00
22578;DHT22;11455;52.390;13.028;2023-05-24T04:37:11;12.70;1.00
22578;DHT22;11455;52.390;13.028;2023-05-24T04:39:42;12.70;1.00
22578;DHT22;11455;52.390;13.028;2023-05-24T04:42:09;12.70;1.00
22578;DHT22;11455;52.390;13.028;2023-05-24T04:44:35;12.70;1.00
22578;DHT22;11455;52.390;13.028;2023-05-24T04:47:00;12.70;1.00
22578;DHT22;11455;52.390;13.028;2023-05-24T04:49:28;12.60;1.00
22578;DHT22;11455;52.390;13.028;2023-05-24T04:51:55;12.50;1.00
22578;DHT22;11455;52.390;13.028;2023-05-24T04:54:21;12.50;1.00
22578;DHT22;11455;52.390;13.028;2023-05-24T04:56:47;12.50;1.00
22578;DHT22;11455;52.390;13.028;2023-05-24T04:59:13;12.40;1.00
22578;DHT22;11455;52.390;13.028;2023-05-24T05:01:39;12.40;1.00
22578;DHT22;11455;52.390;13.028;2023-05-24T05:04:04;12.30;1.00
22578;DHT22;11455;52.390;13.028;2023-05-24T05:06:33;12.30;1.00
22578;DHT22;11455;52.390;13.028;2023-05-24T05:09:06;12.20;1.00
22578;DHT22;11455;52.390;13.028;2023-05-24T05:11:59;12.10;1.00
22578;DHT22;11455;52.390;13.028;2023-05-24T05:14:39;12.10;1.00
22578;DHT22;11455;52.390;13.028;2023-05-24T05:17:05;12.10;1.00
22578;DHT22;11455;52.390;13.028;2023-05-24T05:19:31;12.10;3.70
22578;DHT22;11455;52.390;13.028;2023-05-24T05:21:57;12.20;1.00
22578;DHT22;11455;52.390;13.028;2023-05-24T05:24:27;12.20;1.30
22578;DHT22;11455;52.390;13.028;2023-05-24T05:26:53;12.10;5.70
22578;DHT22;11455;52.390;13.028;2023-05-24T05:29:19;12.00;21.10
22578;DHT22;11455;52.390;13.028;2023-05-24T05:31:46;11.90;53.40
22578;DHT22;11455;52.390;13.028;2023-05-24T05:34:11;12.00;42.90
22578;DHT22;11455;52.390;13.028;2023-05-24T05:36:37;11.90;80.90
22578;DHT22;11455;52.390;13.028;2023-05-24T05:39:05;11.90;82.40
22578;DHT22;11455;52.390;13.028;2023-05-24T05:41:35;11.90;91.80
22578;DHT22;11455;52.390;13.028;2023-05-24T05:44:01;11.90;91.80
22578;DHT22;11455;52.390;13.028;2023-05-24T05:46:27;11.80;99.90
22578;DHT22;11455;52.390;13.028;2023-05-24T05:48:52;11.80;99.90
22578;DHT22;11455;52.390;13.028;2023-05-24T05:51:18;11.90;99.90
22578;DHT22;11455;52.390;13.028;2023-05-24T05:53:43;12.00;99.90
22578;DHT22;11455;52.390;13.028;2023-05-24T05:56:09;12.10;96.40
22578;DHT22;11455;52.390;13.028;2023-05-24T05:58:35;12.10;96.60
22578;DHT22;11455;52.390;13.028;2023-05-24T06:01:02;12.10;99.90
22578;DHT22;11455;52.390;13.028;2023-05-24T06:03:28;12.10;99.90
22578;DHT22;11455;52.390;13.028;2023-05-24T06:05:54;12.20;99.90
22578;DHT22;11455;52.390;13.028;2023-05-24T06:08:19;12.30;85.90
22578;DHT22;11455;52.390;13.028;2023-05-24T06:10:45;12.40;51.90
22578;DHT22;11455;52.390;13.028;2023-05-24T06:13:11;12.50;64.80
22578;DHT22;11455;52.390;13.028;2023-05-24T06:15:37;12.50;50.20
22578;DHT22;11455;52.390;13.028;2023-05-24T06:18:03;12.50;57.10
22578;DHT22;11455;52.390;13.028;2023-05-24T06:20:28;12.50;54.40
22578;DHT22;11455;52.390;13.028;2023-05-24T06:22:54;12.60;58.90
22578;DHT22;11455;52.390;13.028;2023-05-24T06:25:24;12.60;53.80
22578;DHT22;11455;52.390;13.028;2023-05-24T06:27:51;12.70;50.20
22578;DHT22;11455;52.390;13.028;2023-05-24T06:30:17;12.70;27.00
22578;DHT22;11455;52.390;13.028;2023-05-24T06:32:43;12.70;40.20
22578;DHT22;11455;52.390;13.028;2023-05-24T06:35:09;12.70;40.70
22578;DHT22;11455;52.390;13.028;2023-05-24T06:37:35;12.70;33.70
22578;DHT22;11455;52.390;13.028;2023-05-24T06:40:00;12.70;26.90
22578;DHT22;11455;52.390;13.028;2023-05-24T06:42:26;12.80;27.70
22578;DHT22;11455;52.390;13.028;2023-05-24T06:44:52;12.80;27.40
22578;DHT22;11455;52.390;13.028;2023-05-24T06:47:17;12.80;24.00
22578;DHT22;11455;52.390;13.028;2023-05-24T06:49:43;12.80;37.90
22578;DHT22;11455;52.390;13.028;2023-05-24T06:52:09;12.80;35.40
22578;DHT22;11455;52.390;13.028;2023-05-24T06:54:34;12.90;33.20
22578;DHT22;11455;52.390;13.028;2023-05-24T06:57:00;12.90;22.40
22578;DHT22;11455;52.390;13.028;2023-05-24T06:59:26;12.90;16.60
22578;DHT22;11455;52.390;13.028;2023-05-24T07:01:52;12.90;16.40
22578;DHT22;11455;52.390;13.028;2023-05-24T07:04:24;12.80;14.20
22578;DHT22;11455;52.390;13.028;2023-05-24T07:06:51;12.80;18.60
22578;DHT22;11455;52.390;13.028;2023-05-24T07:09:17;12.80;17.00
22578;DHT22;11455;52.390;13.028;2023-05-24T07:11:43;12.90;14.90
22578;DHT22;11455;52.390;13.028;2023-05-24T07:14:08;12.80;19.90
22578;DHT22;11455;52.390;13.028;2023-05-24T07:16:34;12.80;28.40
22578;DHT22;11455;52.390;13.028;2023-05-24T07:19:00;12.80;31.10
22578;DHT22;11455;52.390;13.028;2023-05-24T07:21:26;13.00;25.40
22578;DHT22;11455;52.390;13.028;2023-05-24T07:23:52;13.00;17.30
22578;DHT22;11455;52.390;13.028;2023-05-24T07:26:17;13.00;15.90
22578;DHT22;11455;52.390;13.028;2023-05-24T07:28:43;13.00;23.30
22578;DHT22;11455;52.390;13.028;2023-05-24T07:31:11;12.90;29.10
22578;DHT22;11455;52.390;13.028;2023-05-24T07:33:37;12.90;37.20
22578;DHT22;11455;52.390;13.028;2023-05-24T07:36:03;13.10;34.80
22578;DHT22;11455;52.390;13.028;2023-05-24T07:38:29;13.10;18.70
22578;DHT22;11455;52.390;13.028;2023-05-24T07:41:01;12.90;25.50
22578;DHT22;11455;52.390;13.028;2023-05-24T07:43:28;12.80;49.00
22578;DHT22;11455;52.390;13.028;2023-05-24T07:45:53;12.80;40.60
22578;DHT22;11455;52.390;13.028;2023-05-24T07:48:19;12.70;87.20
22578;DHT22;11455;52.390;13.028;2023-05-24T07:50:47;12.70;90.50
22578;DHT22;11455;52.390;13.028;2023-05-24T07:53:16;12.80;92.40
22578;DHT22;11455;52.390;13.028;2023-05-24T07:55:42;12.90;69.20
22578;DHT22;11455;52.390;13.028;2023-05-24T07:58:09;12.90;46.10
22578;DHT22;11455;52.390;13.028;2023-05-24T08:00:35;12.80;62.50
22578;DHT22;11455;52.390;13.028;2023-05-24T08:03:00;12.70;79.80
22578;DHT22;11455;52.390;13.028;2023-05-24T08:05:26;12.60;99.90
22578;DHT22;11455;52.390;13.028;2023-05-24T08:07:52;12.60;99.90
22578;DHT22;11455;52.390;13.028;2023-05-24T08:10:18;12.60;99.90
22578;DHT22;11455;52.390;13.028;2023-05-24T08:12:43;12.60;99.90
22578;DHT22;11455;52.390;13.028;2023-05-24T08:15:09;12.70;99.90
22578;DHT22;11455;52.390;13.028;2023-05-24T08:17:35;12.70;99.90
22578;DHT22;11455;52.390;13.028;2023-05-24T08:20:01;12.80;99.90
22578;DHT22;11455;52.390;13.028;2023-05-24T08:22:30;12.90;99.90
22578;DHT22;11455;52.390;13.028;2023-05-24T08:24:56;12.90;96.70
22578;DHT22;11455;52.390;13.028;2023-05-24T08:27:22;13.10;77.70
22578;DHT22;11455;52.390;13.028;2023-05-24T08:29:48;13.20;64.40
22578;DHT22;11455;52.390;13.028;2023-05-24T08:32:14;13.30;33.10
22578;DHT22;11455;52.390;13.028;2023-05-24T08:34:39;13.30;37.90
22578;DHT22;11455;52.390;13.028;2023-05-24T08:37:05;13.40;24.70
22578;DHT22;11455;52.390;13.028;2023-05-24T08:39:33;13.50;23.80
22578;DHT22;11455;52.390;13.028;2023-05-24T08:41:59;13.50;16.60
22578;DHT22;11455;52.390;13.028;2023-05-24T08:44:25;13.50;7.70
22578;DHT22;11455;52.390;13.028;2023-05-24T08:46:51;13.40;15.90
22578;DHT22;11455;52.390;13.028;2023-05-24T08:49:18;13.30;19.00
22578;DHT22;11455;52.390;13.028;2023-05-24T08:51:46;13.40;20.30
22578;DHT22;11455;52.390;13.028;2023-05-24T08:54:12;13.50;14.60
22578;DHT22;11455;52.390;13.028;2023-05-24T08:56:38;13.60;6.00
22578;DHT22;11455;52.390;13.028;2023-05-24T08:59:05;13.70;1.80
22578;DHT22;11455;52.390;13.028;2023-05-24T09:01:30;13.80;1.00
22578;DHT22;11455;52.390;13.028;2023-05-24T09:03:57;13.70;1.00
22578;DHT22;11455;52.390;13.028;2023-05-24T09:06:24;13.40;1.00
22578;DHT22;11455;52.390;13.028;2023-05-24T09:08:50;13.40;16.90
22578;DHT22;11455;52.390;13.028;2023-05-24T09:11:17;13.40;12.60
22578;DHT22;11455;52.390;13.028;2023-05-24T09:13:44;13.40;7.40
22578;DHT22;11455;52.390;13.028;2023-05-24T09:16:10;13.40;1.00
22578;DHT22;11455;52.390;13.028;2023-05-24T09:18:35;13.20;13.50
22578;DHT22;11455;52.390;13.028;2023-05-24T09:21:01;13.10;10.80
22578;DHT22;11455;52.390;13.028;2023-05-24T09:23:27;13.10;10.90
22578;DHT22;11455;52.390;13.028;2023-05-24T09:25:53;13.00;4.50
22578;DHT22;11455;52.390;13.028;2023-05-24T09:28:21;13.10;5.30
22578;DHT22;11455;52.390;13.028;2023-05-24T09:30:59;13.20;5.70
22578;DHT22;11455;52.390;13.028;2023-05-24T09:33:32;13.30;2.10
22578;DHT22;11455;52.390;13.028;2023-05-24T09:35:58;13.30;5.40
22578;DHT22;11455;52.390;13.028;2023-05-24T09:38:24;13.50;1.00
22578;DHT22;11455;52.390;13.028;2023-05-24T09:41:00;13.50;1.00
22578;DHT22;11455;52.390;13.028;2023-05-24T09:43:26;13.50;1.00
22578;DHT22;11455;52.390;13.028;2023-05-24T09:45:54;13.50;1.00
22578;DHT22;11455;52.390;13.028;2023-05-24T09:48:22;13.50;1.00
22578;DHT22;11455;52.390;13.028;2023-05-24T09:51:06;13.60;1.00
22578;DHT22;11455;52.390;13.028;2023-05-24T09:53:34;13.70;1.00
22578;DHT22;11455;52.390;13.028;2023-05-24T09:56:02;13.80;1.00
22578;DHT22;11455;52.390;13.028;2023-05-24T09:58:28;13.90;1.00
22578;DHT22;11455;52.390;13.028;2023-05-24T10:01:02;13.90;1.00
22578;DHT22;11455;52.390;13.028;2023-05-24T10:03:28;14.00;1.00
22578;DHT22;11455;52.390;13.028;2023-05-24T10:05:53;14.10;1.00
22578;DHT22;11455;52.390;13.028;2023-05-24T10:08:20;14.00;1.00
22578;DHT22;11455;52.390;13.028;2023-05-24T10:10:46;13.90;1.00
22578;DHT22;11455;52.390;13.028;2023-05-24T10:13:12;13.80;1.00
22578;DHT22;11455;52.390;13.028;2023-05-24T10:15:40;13.70;1.00
22578;DHT22;11455;52.390;13.028;2023-05-24T10:18:05;13.70;1.00
22578;DHT22;11455;52.390;13.028;2023-05-24T10:20:32;13.80;1.00
22578;DHT22;11455;52.390;13.028;2023-05-24T10:23:00;13.90;1.00
22578;DHT22;11455;52.390;13.028;2023-05-24T10:25:26;13.90;1.00
22578;DHT22;11455;52.390;13.028;2023-05-24T10:28:03;14.00;1.00
22578;DHT22;11455;52.390;13.028;2023-05-24T10:31:04;13.90;1.00
22578;DHT22;11455;52.390;13.028;2023-05-24T10:33:21;13.80;1.00
22578;DHT22;11455;52.390;13.028;2023-05-24T10:35:47;13.80;1.00
22578;DHT22;11455;52.390;13.028;2023-05-24T10:38:13;13.80;1.00
22578;DHT22;11455;52.390;13.028;2023-05-24T10:40:42;13.90;1.00
22578;DHT22;11455;52.390;13.028;2023-05-24T10:43:08;14.10;1.00
22578;DHT22;11455;52.390;13.028;2023-05-24T10:45:37;14.20;1.00
22578;DHT22;11455;52.390;13.028;2023-05-24T10:48:07;14.30;1.00
22578;DHT22;11455;52.390;13.028;2023-05-24T10:50:35;14.20;1.00
22578;DHT22;11455;52.390;13.028;2023-05-24T10:53:11;14.20;1.00
22578;DHT22;11455;52.390;13.028;2023-05-24T10:55:50;14.20;1.00
22578;DHT22;11455;52.390;13.028;2023-05-24T10:58:17;14.20;1.00
22578;DHT22;11455;52.390;13.028;2023-05-24T11:00:43;14.10;1.00
22578;DHT22;11455;52.390;13.028;2023-05-24T11:03:09;14.20;1.00
22578;DHT22;11455;52.390;13.028;2023-05-24T11:05:50;14.20;1.00
22578;DHT22;11455;52.390;13.028;2023-05-24T11:08:30;14.30;1.00
22578;DHT22;11455;52.390;13.028;2023-05-24T11:11:12;14.50;1.00
22578;DHT22;11455;52.390;13.028;2023-05-24T11:13:38;14.50;1.00
22578;DHT22;11455;52.390;13.028;2023-05-24T11:16:07;14.70;1.00
22578;DHT22;11455;52.390;13.028;2023-05-24T11:18:33;14.70;1.00
22578;DHT22;11455;52.390;13.028;2023-05-24T11:21:07;14.80;1.00
22578;DHT22;11455;52.390;13.028;2023-05-24T11:23:33;14.90;1.00
22578;DHT22;11455;52.390;13.028;2023-05-24T11:25:58;14.80;1.00
22578;DHT22;11455;52.390;13.028;2023-05-24T11:28:24;14.90;1.00
22578;DHT22;11455;52.390;13.028;2023-05-24T11:30:50;15.00;1.00
22578;DHT22;11455;52.390;13.028;2023-05-24T11:35:43;15.20;1.00
22578;DHT22;11455;52.390;13.028;2023-05-24T11:38:12;15.20;1.00
22578;DHT22;11455;52.390;13.028;2023-05-24T11:40:40;15.30;1.00
22578;DHT22;11455;52.390;13.028;2023-05-24T11:43:18;15.40;1.00
22578;DHT22;11455;52.390;13.028;2023-05-24T11:45:48;15.50;1.00
22578;DHT22;11455;52.390;13.028;2023-05-24T11:48:14;15.40;1.00
22578;DHT22;11455;52.390;13.028;2023-05-24T11:50:40;15.30;1.00
22578;DHT22;11455;52.390;13.028;2023-05-24T11:53:10;15.40;1.00
22578;DHT22;11455;52.390;13.028;2023-05-24T11:55:36;15.30;1.00
22578;DHT22;11455;52.390;13.028;2023-05-24T11:58:05;15.30;1.00
22578;DHT22;11455;52.390;13.028;2023-05-24T12:00:36;15.30;1.00
22578;DHT22;11455;52.390;13.028;2023-05-24T12:03:02;15.30;1.00
22578;DHT22;11455;52.390;13.028;2023-05-24T12:05:35;15.30;1.00
22578;DHT22;11455;52.390;13.028;2023-05-24T12:10:29;15.40;1.00
22578;DHT22;11455;52.390;13.028;2023-05-24T12:12:55;15.50;1.00
22578;DHT22;11455;52.390;13.028;2023-05-24T12:15:21;15.50;1.00
22578;DHT22;11455;52.390;13.028;2023-05-24T12:17:49;15.50;1.00
22578;DHT22;11455;52.390;13.028;2023-05-24T12:20:15;15.50;1.00
22578;DHT22;11455;52.390;13.028;2023-05-24T12:22:46;15.50;1.00
22578;DHT22;11455;52.390;13.028;2023-05-24T12:25:15;15.60;1.00
22578;DHT22;11455;52.390;13.028;2023-05-24T12:27:41;15.60;1.00
22578;DHT22;11455;52.390;13.028;2023-05-24T12:30:12;15.50;1.00
22578;DHT22;11455;52.390;13.028;2023-05-24T12:32:43;15.40;1.00
22578;DHT22;11455;52.390;13.028;2023-05-24T12:35:09;15.40;1.00
22578;DHT22;11455;52.390;13.028;2023-05-24T12:37:35;15.40;1.00
22578;DHT22;11455;52.390;13.028;2023-05-24T12:40:01;15.50;1.00
22578;DHT22;11455;52.390;13.028;2023-05-24T12:42:29;15.70;1.00
22578;DHT22;11455;52.390;13.028;2023-05-24T12:44:55;15.80;1.00
22578;DHT22;11455;52.390;13.028;2023-05-24T12:47:21;15.80;1.00
22578;DHT22;11455;52.390;13.028;2023-05-24T12:49:46;15.90;1.00
22578;DHT22;11455;52.390;13.028;2023-05-24T12:52:12;16.20;1.00
22578;DHT22;11455;52.390;13.028;2023-05-24T12:54:38;16.30;1.00
22578;DHT22;11455;52.390;13.028;2023-05-24T12:57:04;16.50;1.00
22578;DHT22;11455;52.390;13.028;2023-05-24T12:59:32;16.70;1.00
22578;DHT22;11455;52.390;13.028;2023-05-24T13:01:58;16.70;1.00
22578;DHT22;11455;52.390;13.028;2023-05-24T13:04:24;16.50;1.00
22578;DHT22;11455;52.390;13.028;2023-05-24T13:06:54;16.30;1.00
22578;DHT22;11455;52.390;13.028;2023-05-24T13:09:20;16.00;1.00
22578;DHT22;11455;52.390;13.028;2023-05-24T13:11:46;15.70;1.00
22578;DHT22;11455;52.390;13.028;2023-05-24T13:14:12;15.50;1.00
22578;DHT22;11455;52.390;13.028;2023-05-24T13:16:39;15.30;1.00
22578;DHT22;11455;52.390;13.028;2023-05-24T13:19:05;15.30;1.00
22578;DHT22;11455;52.390;13.028;2023-05-24T13:21:31;15.30;1.00
22578;DHT22;11455;52.390;13.028;2023-05-24T13:23:56;15.50;1.00
22578;DHT22;11455;52.390;13.028;2023-05-24T13:26:22;15.50;1.00
22578;DHT22;11455;52.390;13.028;2023-05-24T13:28:48;15.60;1.00
22578;DHT22;11455;52.390;13.028;2023-05-24T13:31:14;15.70;1.00
22578;DHT22;11455;52.390;13.028;2023-05-24T13:33:40;15.70;1.00
22578;DHT22;11455;52.390;13.028;2023-05-24T13:36:05;15.80;1.00
22578;DHT22;11455;52.390;13.028;2023-05-24T13:38:31;15.80;1.00
22578;DHT22;11455;52.390;13.028;2023-05-24T13:40:57;15.80;1.00
22578;DHT22;11455;52.390;13.028;2023-05-24T13:43:23;15.80;1.00
22578;DHT22;11455;52.390;13.028;2023-05-24T13:45:49;16.00;1.00
22578;DHT22;11455;52.390;13.028;2023-05-24T13:48:15;16.00;1.00
22578;DHT22;11455;52.390;13.028;2023-05-24T13:50:41;16.00;1.00
22578;DHT22;11455;52.390;13.028;2023-05-24T13:53:06;16.10;1.00
22578;DHT22;11455;52.390;13.028;2023-05-24T13:55:33;16.00;1.00
22578;DHT22;11455;52.390;13.028;2023-05-24T13:57:59;16.10;1.00
22578;DHT22;11455;52.390;13.028;2023-05-24T14:00:29;16.20;1.00
22578;DHT22;11455;52.390;13.028;2023-05-24T14:02:55;16.30;1.00
22578;DHT22;11455;52.390;13.028;2023-05-24T14:05:21;16.50;1.00
22578;DHT22;11455;52.390;13.028;2023-05-24T14:07:47;16.60;1.00
22578;DHT22;11455;52.390;13.028;2023-05-24T14:10:16;16.50;1.00
22578;DHT22;11455;52.390;13.028;2023-05-24T14:12:52;16.60;1.00
22578;DHT22;11455;52.390;13.028;2023-05-24T14:15:17;16.50;1.00
22578;DHT22;11455;52.390;13.028;2023-05-24T14:17:43;16.30;1.00
22578;DHT22;11455;52.390;13.028;2023-05-24T14:20:09;16.30;1.00
22578;DHT22;11455;52.390;13.028;2023-05-24T14:22:35;16.10;1.00
22578;DHT22;11455;52.390;13.028;2023-05-24T14:25:00;16.10;1.00
22578;DHT22;11455;52.390;13.028;2023-05-24T14:27:26;16.20;1.00
22578;DHT22;11455;52.390;13.028;2023-05-24T14:29:52;16.10;1.00
22578;DHT22;11455;52.390;13.028;2023-05-24T14:32:17;16.00;1.00
22578;DHT22;11455;52.390;13.028;2023-05-24T14:34:44;16.20;1.00
22578;DHT22;11455;52.390;13.028;2023-05-24T14:37:09;16.30;1.00
22578;DHT22;11455;52.390;13.028;2023-05-24T14:39:35;16.40;1.00
22578;DHT22;11455;52.390;13.028;2023-05-24T14:42:01;16.40;1.00
22578;DHT22;11455;52.390;13.028;2023-05-24T14:44:26;16.30;1.00
22578;DHT22;11455;52.390;13.028;2023-05-24T14:46:58;16.30;1.00
22578;DHT22;11455;52.390;13.028;2023-05-24T14:49:24;16.20;1.00
22578;DHT22;11455;52.390;13.028;2023-05-24T14:51:49;16.20;1.00
22578;DHT22;11455;52.390;13.028;2023-05-24T14:54:15;16.30;1.00
22578;DHT22;11455;52.390;13.028;2023-05-24T14:56:41;16.50;1.00
22578;DHT22;11455;52.390;13.028;2023-05-24T14:59:06;16.70;1.00
22578;DHT22;11455;52.390;13.028;2023-05-24T15:01:32;16.90;1.00
22578;DHT22;11455;52.390;13.028;2023-05-24T15:03:58;17.10;1.00
22578;DHT22;11455;52.390;13.028;2023-05-24T15:06:24;17.10;1.00
22578;DHT22;11455;52.390;13.028;2023-05-24T15:08:49;17.10;1.00
22578;DHT22;11455;52.390;13.028;2023-05-24T15:11:16;17.00;1.00
22578;DHT22;11455;52.390;13.028;2023-05-24T15:13:43;16.90;1.00
22578;DHT22;11455;52.390;13.028;2023-05-24T15:16:08;17.00;1.00
22578;DHT22;11455;52.390;13.028;2023-05-24T15:18:34;17.10;1.00
22578;DHT22;11455;52.390;13.028;2023-05-24T15:21:00;17.00;1.00
22578;DHT22;11455;52.390;13.028;2023-05-24T15:23:28;17.00;1.00
22578;DHT22;11455;52.390;13.028;2023-05-24T15:25:54;17.00;1.00
22578;DHT22;11455;52.390;13.028;2023-05-24T15:28:19;17.00;1.00
22578;DHT22;11455;52.390;13.028;2023-05-24T15:30:45;17.10;1.00
22578;DHT22;11455;52.390;13.028;2023-05-24T15:33:11;17.10;1.00
22578;DHT22;11455;52.390;13.028;2023-05-24T15:35:37;17.10;1.00
22578;DHT22;11455;52.390;13.028;2023-05-24T15:38:03;17.20;1.00
22578;DHT22;11455;52.390;13.028;2023-05-24T15:40:29;17.30;1.00